createdAt,value
2018-02-15T00:00:03.284Z,0
2018-02-15T00:01:13.472Z,0
2018-02-15T00:02:24.344Z,0
2018-02-15T00:03:34.508Z,0
2018-02-15T00:04:44.885Z,0
2018-02-15T00:05:54.987Z,0
2018-02-15T00:07:05.117Z,0
2018-02-15T00:08:15.311Z,0
2018-02-15T00:09:25.432Z,0
2018-02-15T00:10:35.336Z,0
2018-02-15T00:11:45.465Z,0
2018-02-15T00:12:55.602Z,0
2018-02-15T00:14:05.939Z,0
2018-02-15T00:15:15.784Z,0
2018-02-15T00:16:26.002Z,0
2018-02-15T00:17:36.146Z,0
2018-02-15T00:18:46.488Z,0
2018-02-15T00:19:56.602Z,0
2018-02-15T00:21:06.847Z,0
2018-02-15T00:22:17.093Z,0
2018-02-15T00:23:28.220Z,0
2018-02-15T00:24:38.503Z,0
2018-02-15T00:25:48.726Z,0
2018-02-15T00:26:58.920Z,0
2018-02-15T00:28:09.062Z,0
2018-02-15T00:29:18.909Z,0
2018-02-15T00:30:29.025Z,0
2018-02-15T00:31:38.985Z,0
2018-02-15T00:32:49.090Z,0
2018-02-15T00:33:59.270Z,0
2018-02-15T00:35:09.364Z,0
2018-02-15T00:36:19.494Z,0
2018-02-15T00:37:29.603Z,0
2018-02-15T00:38:39.719Z,0
2018-02-15T00:39:49.883Z,0
2018-02-15T00:40:59.738Z,0
2018-02-15T00:42:09.906Z,0
2018-02-15T00:43:20.114Z,0
2018-02-15T00:44:30.227Z,0
2018-02-15T00:45:40.447Z,0
2018-02-15T00:46:50.632Z,0
2018-02-15T00:48:00.747Z,0
2018-02-15T00:49:10.856Z,0
2018-02-15T00:50:20.987Z,0
2018-02-15T00:51:31.129Z,0
2018-02-15T00:52:41.296Z,0
2018-02-15T00:53:51.214Z,0
2018-02-15T00:55:01.073Z,0
2018-02-15T00:56:11.174Z,0
2018-02-15T00:57:21.299Z,0
2018-02-15T00:58:32.590Z,0
2018-02-15T00:59:42.732Z,0
2018-02-15T01:00:53.029Z,0
2018-02-15T01:02:03.141Z,0
2018-02-15T01:03:13.374Z,0
2018-02-15T01:04:23.485Z,0
2018-02-15T01:05:34.309Z,0
2018-02-15T01:06:44.520Z,0
2018-02-15T01:07:54.728Z,0
2018-02-15T01:09:05.018Z,0
2018-02-15T01:10:15.138Z,0
2018-02-15T01:11:25.299Z,0
2018-02-15T01:12:35.422Z,0
2018-02-15T01:13:45.543Z,0
2018-02-15T01:14:55.647Z,0
2018-02-15T01:16:06.476Z,0
2018-02-15T01:17:16.398Z,0
2018-02-15T01:18:26.507Z,0
2018-02-15T01:19:36.623Z,0
2018-02-15T01:20:46.772Z,0
2018-02-15T01:21:56.900Z,0
2018-02-15T01:23:07.031Z,0
2018-02-15T01:24:18.107Z,0
2018-02-15T01:25:28.109Z,0
2018-02-15T01:26:38.269Z,0
2018-02-15T01:27:48.524Z,0
2018-02-15T01:28:58.386Z,0
2018-02-15T01:30:08.563Z,0
2018-02-15T01:31:18.684Z,0
2018-02-15T01:32:28.815Z,0
2018-02-15T01:33:39.116Z,0
2018-02-15T01:34:49.252Z,0
2018-02-15T01:36:00.340Z,0
2018-02-15T01:37:10.491Z,0
2018-02-15T01:38:20.632Z,0
2018-02-15T01:39:30.777Z,0
2018-02-15T01:40:40.937Z,0
2018-02-15T01:41:50.690Z,0
2018-02-15T01:43:00.818Z,0
2018-02-15T01:44:10.933Z,0
2018-02-15T01:45:21.052Z,0
2018-02-15T01:46:31.209Z,0
2018-02-15T01:47:41.340Z,0
2018-02-15T01:48:51.240Z,0
2018-02-15T01:50:01.393Z,0
2018-02-15T01:51:11.250Z,0
2018-02-15T01:52:21.406Z,0
2018-02-15T01:53:31.514Z,0
2018-02-15T01:54:41.661Z,0
2018-02-15T01:55:51.960Z,0
2018-02-15T01:57:01.827Z,0
2018-02-15T01:58:11.925Z,0
2018-02-15T01:59:21.674Z,0
2018-02-15T02:00:32.845Z,0
2018-02-15T02:01:42.689Z,0
2018-02-15T02:02:52.825Z,0
2018-02-15T02:04:03.917Z,0
2018-02-15T02:05:14.017Z,0
2018-02-15T02:06:24.195Z,0
2018-02-15T02:07:34.342Z,0
2018-02-15T02:08:44.479Z,0
2018-02-15T02:09:54.645Z,0
2018-02-15T02:11:04.817Z,0
2018-02-15T02:12:15.022Z,0
2018-02-15T02:13:25.151Z,0
2018-02-15T02:14:35.350Z,0
2018-02-15T02:15:45.440Z,0
2018-02-15T02:16:55.566Z,0
2018-02-15T02:18:05.669Z,0
2018-02-15T02:19:15.787Z,0
2018-02-15T02:20:25.899Z,0
2018-02-15T02:21:36.152Z,0
2018-02-15T02:22:46.002Z,0
2018-02-15T02:23:56.239Z,0
2018-02-15T02:25:06.454Z,0
2018-02-15T02:26:16.650Z,0
2018-02-15T02:27:26.677Z,0
2018-02-15T02:28:36.788Z,0
2018-02-15T02:29:46.969Z,0
2018-02-15T02:30:56.557Z,0
2018-02-15T02:32:06.776Z,0
2018-02-15T02:33:16.960Z,0
2018-02-15T02:34:26.461Z,0
2018-02-15T02:35:36.592Z,0
2018-02-15T02:36:46.775Z,0
2018-02-15T02:37:56.939Z,0
2018-02-15T02:39:07.076Z,0
2018-02-15T02:40:17.166Z,0
2018-02-15T02:41:27.275Z,0
2018-02-15T02:42:37.374Z,0
2018-02-15T02:43:47.587Z,0
2018-02-15T02:44:57.793Z,0
2018-02-15T02:46:07.942Z,0
2018-02-15T02:47:17.828Z,0
2018-02-15T02:48:28.057Z,0
2018-02-15T02:49:38.270Z,0
2018-02-15T02:50:48.474Z,0
2018-02-15T02:51:58.455Z,0
2018-02-15T02:53:08.569Z,0
2018-02-15T02:54:18.444Z,0
2018-02-15T02:55:28.588Z,0
2018-02-15T02:56:38.708Z,0
2018-02-15T02:57:48.813Z,0
2018-02-15T02:58:58.941Z,0
2018-02-15T03:00:09.056Z,0
2018-02-15T03:01:19.164Z,0
2018-02-15T03:02:29.326Z,0
2018-02-15T03:03:39.449Z,0
2018-02-15T03:04:49.299Z,0
2018-02-15T03:05:59.408Z,0
2018-02-15T03:07:09.267Z,0
2018-02-15T03:08:18.896Z,0
2018-02-15T03:09:29.092Z,0
2018-02-15T03:10:39.231Z,0
2018-02-15T03:11:49.460Z,0
2018-02-15T03:12:59.566Z,0
2018-02-15T03:14:09.423Z,0
2018-02-15T03:15:19.687Z,0
2018-02-15T03:16:29.837Z,0
2018-02-15T03:17:39.963Z,0
2018-02-15T03:18:49.826Z,0
2018-02-15T03:19:59.688Z,0
2018-02-15T03:21:09.798Z,0
2018-02-15T03:22:19.949Z,0
2018-02-15T03:23:30.078Z,0
2018-02-15T03:24:40.174Z,0
2018-02-15T03:25:50.341Z,0
2018-02-15T03:27:00.455Z,0
2018-02-15T03:28:10.655Z,0
2018-02-15T03:29:20.845Z,0
2018-02-15T03:30:31.097Z,0
2018-02-15T03:31:41.350Z,0
2018-02-15T03:32:51.143Z,0
2018-02-15T03:34:01.051Z,0
2018-02-15T03:35:11.165Z,0
2018-02-15T03:36:21.295Z,0
2018-02-15T03:37:31.571Z,0
2018-02-15T03:38:41.731Z,0
2018-02-15T03:39:51.866Z,0
2018-02-15T03:41:02.259Z,0
2018-02-15T03:42:12.371Z,0
2018-02-15T03:43:22.622Z,0
2018-02-15T03:44:33.854Z,0
2018-02-15T03:45:43.999Z,0
2018-02-15T03:46:54.220Z,0
2018-02-15T03:48:04.427Z,0
2018-02-15T03:49:14.591Z,0
2018-02-15T03:50:24.837Z,0
2018-02-15T03:51:34.990Z,0
2018-02-15T03:52:45.133Z,0
2018-02-15T03:53:55.313Z,0
2018-02-15T03:55:05.193Z,0
2018-02-15T03:56:15.323Z,0
2018-02-15T03:57:25.453Z,0
2018-02-15T03:58:36.582Z,0
2018-02-15T03:59:46.755Z,0
2018-02-15T04:00:56.890Z,0
2018-02-15T04:02:07.097Z,0
2018-02-15T04:03:17.244Z,0
2018-02-15T04:04:27.584Z,0
2018-02-15T04:05:37.744Z,0
2018-02-15T04:06:48.030Z,0
2018-02-15T04:07:58.248Z,0
2018-02-15T04:09:08.222Z,0
2018-02-15T04:10:18.346Z,0
2018-02-15T04:11:28.460Z,0
2018-02-15T04:12:38.574Z,0
2018-02-15T04:13:48.682Z,0
2018-02-15T04:14:58.817Z,0
2018-02-15T04:16:08.915Z,0
2018-02-15T04:17:19.043Z,0
2018-02-15T04:18:29.276Z,0
2018-02-15T04:19:39.476Z,0
2018-02-15T04:20:49.341Z,0
2018-02-15T04:21:59.453Z,0
2018-02-15T04:23:09.620Z,0
2018-02-15T04:24:19.806Z,0
2018-02-15T04:25:30.011Z,0
2018-02-15T04:26:40.124Z,0
2018-02-15T04:27:49.980Z,0
2018-02-15T04:29:00.202Z,0
2018-02-15T04:30:10.542Z,0
2018-02-15T04:31:20.389Z,0
2018-02-15T04:32:30.240Z,0
2018-02-15T04:33:40.340Z,0
2018-02-15T04:34:51.435Z,0
2018-02-15T04:36:01.555Z,0
2018-02-15T04:37:11.837Z,0
2018-02-15T04:38:21.986Z,0
2018-02-15T04:39:32.142Z,0
2018-02-15T04:40:42.239Z,0
2018-02-15T04:41:53.083Z,0
2018-02-15T04:43:03.251Z,0
2018-02-15T04:44:13.391Z,0
2018-02-15T04:45:23.185Z,0
2018-02-15T04:46:33.295Z,0
2018-02-15T04:47:43.419Z,0
2018-02-15T04:48:53.569Z,0
2018-02-15T04:50:03.684Z,0
2018-02-15T04:51:13.536Z,0
2018-02-15T04:52:23.413Z,0
2018-02-15T04:53:33.399Z,0
2018-02-15T04:54:43.567Z,0
2018-02-15T04:55:53.675Z,0
2018-02-15T04:57:03.429Z,0
2018-02-15T04:58:13.535Z,0
2018-02-15T04:59:23.643Z,0
2018-02-15T05:00:33.813Z,0
2018-02-15T05:01:43.926Z,0
2018-02-15T05:02:54.043Z,0
2018-02-15T05:04:03.905Z,0
2018-02-15T05:05:14.039Z,0
2018-02-15T05:06:24.140Z,0
2018-02-15T05:07:34.251Z,0
2018-02-15T05:08:44.371Z,0
2018-02-15T05:09:54.472Z,0
2018-02-15T05:11:04.434Z,0
2018-02-15T05:12:14.664Z,0
2018-02-15T05:13:25.884Z,0
2018-02-15T05:14:36.036Z,0
2018-02-15T05:15:46.187Z,0
2018-02-15T05:16:56.577Z,0
2018-02-15T05:18:06.822Z,0
2018-02-15T05:19:16.970Z,0
2018-02-15T05:20:28.075Z,0
2018-02-15T05:21:37.961Z,0
2018-02-15T05:22:48.063Z,0
2018-02-15T05:23:57.992Z,0
2018-02-15T05:25:08.102Z,0
2018-02-15T05:26:17.967Z,0
2018-02-15T05:27:28.060Z,0
2018-02-15T05:28:38.305Z,0
2018-02-15T05:29:48.423Z,0
2018-02-15T05:30:58.557Z,0
2018-02-15T05:32:08.404Z,0
2018-02-15T05:33:18.559Z,0
2018-02-15T05:34:28.779Z,0
2018-02-15T05:35:38.924Z,0
2018-02-15T05:36:49.032Z,0
2018-02-15T05:37:59.154Z,0
2018-02-15T05:39:09.273Z,0
2018-02-15T05:40:19.125Z,0
2018-02-15T05:41:29.031Z,0
2018-02-15T05:42:39.141Z,0
2018-02-15T05:43:49.251Z,0
2018-02-15T05:44:59.103Z,0
2018-02-15T05:46:10.172Z,0
2018-02-15T05:47:20.335Z,0
2018-02-15T05:48:30.522Z,0
2018-02-15T05:49:40.440Z,0
2018-02-15T05:50:50.563Z,0
2018-02-15T05:52:00.672Z,0
2018-02-15T05:53:10.804Z,0
2018-02-15T05:54:21.168Z,0
2018-02-15T05:55:31.307Z,0
2018-02-15T05:56:41.578Z,0
2018-02-15T05:57:51.784Z,4
2018-02-15T05:59:01.972Z,0
2018-02-15T06:00:12.107Z,0
2018-02-15T06:01:22.218Z,4
2018-02-15T06:02:32.351Z,4
2018-02-15T06:03:42.248Z,4
2018-02-15T06:04:53.162Z,8
2018-02-15T06:06:03.340Z,8
2018-02-15T06:07:13.546Z,8
2018-02-15T06:08:23.709Z,8
2018-02-15T06:09:33.889Z,12
2018-02-15T06:10:44.194Z,12
2018-02-15T06:11:54.044Z,16
2018-02-15T06:13:04.156Z,16
2018-02-15T06:14:14.287Z,24
2018-02-15T06:15:24.415Z,24
2018-02-15T06:16:34.294Z,32
2018-02-15T06:17:44.132Z,36
2018-02-15T06:18:54.256Z,44
2018-02-15T06:20:04.562Z,56
2018-02-15T06:21:14.763Z,64
2018-02-15T06:22:24.410Z,72
2018-02-15T06:23:34.565Z,88
2018-02-15T06:24:44.713Z,100
2018-02-15T06:25:54.860Z,116
2018-02-15T06:27:04.768Z,132
2018-02-15T06:28:14.931Z,144
2018-02-15T06:29:25.065Z,160
2018-02-15T06:30:34.915Z,176
2018-02-15T06:31:45.034Z,188
2018-02-15T06:32:54.891Z,204
2018-02-15T06:34:04.999Z,224
2018-02-15T06:35:15.421Z,240
2018-02-15T06:36:25.469Z,260
2018-02-15T06:37:35.611Z,284
2018-02-15T06:38:45.725Z,300
2018-02-15T06:39:55.911Z,312
2018-02-15T06:41:06.053Z,332
2018-02-15T06:42:15.928Z,360
2018-02-15T06:43:26.047Z,404
2018-02-15T06:44:36.167Z,460
2018-02-15T06:45:47.325Z,496
2018-02-15T06:46:57.467Z,532
2018-02-15T06:48:07.600Z,564
2018-02-15T06:49:17.440Z,588
2018-02-15T06:50:27.555Z,612
2018-02-15T06:51:37.714Z,636
2018-02-15T06:52:47.866Z,676
2018-02-15T06:53:57.758Z,720
2018-02-15T06:55:07.875Z,768
2018-02-15T06:56:18.039Z,816
2018-02-15T06:57:27.898Z,864
2018-02-15T06:58:38.018Z,904
2018-02-15T06:59:48.146Z,940
2018-02-15T07:00:58.435Z,964
2018-02-15T07:02:08.285Z,992
2018-02-15T07:03:18.440Z,1012
2018-02-15T07:04:28.305Z,1036
2018-02-15T07:05:38.419Z,1056
2018-02-15T07:06:48.275Z,1088
2018-02-15T07:07:58.426Z,1148
2018-02-15T07:09:08.559Z,1224
2018-02-15T07:10:18.673Z,1304
2018-02-15T07:11:28.531Z,1360
2018-02-15T07:12:38.762Z,1420
2018-02-15T07:13:48.973Z,1532
2018-02-15T07:14:59.160Z,1708
2018-02-15T07:16:09.297Z,1932
2018-02-15T07:17:19.534Z,2164
2018-02-15T07:18:29.754Z,2424
2018-02-15T07:19:39.949Z,2688
2018-02-15T07:20:50.074Z,2860
2018-02-15T07:21:59.717Z,2912
2018-02-15T07:23:09.887Z,2852
2018-02-15T07:24:19.999Z,2760
2018-02-15T07:25:29.842Z,2704
2018-02-15T07:26:39.968Z,2696
2018-02-15T07:27:50.131Z,2728
2018-02-15T07:29:00.295Z,2828
2018-02-15T07:30:10.471Z,2952
2018-02-15T07:31:20.601Z,3100
2018-02-15T07:32:30.773Z,3280
2018-02-15T07:33:40.613Z,3516
2018-02-15T07:34:50.945Z,3820
2018-02-15T07:36:02.143Z,4120
2018-02-15T07:37:12.276Z,4412
2018-02-15T07:38:22.410Z,4728
2018-02-15T07:39:32.401Z,5192
2018-02-15T07:40:42.561Z,5644
2018-02-15T07:41:52.684Z,4760
2018-02-15T07:43:02.807Z,4340
2018-02-15T07:44:12.754Z,4328
2018-02-15T07:45:22.887Z,4460
2018-02-15T07:46:33.143Z,4644
2018-02-15T07:47:43.295Z,4944
2018-02-15T07:48:53.422Z,5204
2018-02-15T07:50:03.524Z,5400
2018-02-15T07:51:13.658Z,5684
2018-02-15T07:52:23.798Z,6052
2018-02-15T07:53:33.960Z,6048
2018-02-15T07:54:44.097Z,6072
2018-02-15T07:55:54.254Z,6096
2018-02-15T07:57:05.091Z,6048
2018-02-15T07:58:14.994Z,6016
2018-02-15T07:59:25.116Z,6120
2018-02-15T08:00:35.312Z,5984
2018-02-15T08:01:45.426Z,5968
2018-02-15T08:02:55.633Z,5960
2018-02-15T08:04:05.832Z,5952
2018-02-15T08:05:15.944Z,6032
2018-02-15T08:06:25.985Z,6136
2018-02-15T08:07:36.116Z,6196
2018-02-15T08:08:46.299Z,6328
2018-02-15T08:09:56.458Z,6384
2018-02-15T08:11:06.565Z,6372
2018-02-15T08:12:16.678Z,6296
2018-02-15T08:13:26.804Z,6284
2018-02-15T08:14:36.967Z,6256
2018-02-15T08:15:48.146Z,6220
2018-02-15T08:16:58.273Z,6248
2018-02-15T08:18:08.376Z,6336
2018-02-15T08:19:18.499Z,6428
2018-02-15T08:20:28.666Z,6580
2018-02-15T08:21:38.805Z,6860
2018-02-15T08:22:48.697Z,7108
2018-02-15T08:23:58.871Z,7544
2018-02-15T08:25:08.991Z,8232
2018-02-15T08:26:19.125Z,9684
2018-02-15T08:27:29.285Z,11056
2018-02-15T08:28:39.392Z,10796
2018-02-15T08:29:49.505Z,11580
2018-02-15T08:30:59.720Z,10936
2018-02-15T08:32:09.940Z,10604
2018-02-15T08:33:20.094Z,10464
2018-02-15T08:34:30.259Z,10312
2018-02-15T08:35:40.442Z,10640
2018-02-15T08:36:50.549Z,11032
2018-02-15T08:38:00.660Z,11108
2018-02-15T08:39:10.790Z,11900
2018-02-15T08:40:21.925Z,12536
2018-02-15T08:41:31.773Z,13232
2018-02-15T08:42:41.922Z,14208
2018-02-15T08:43:53.035Z,13244
2018-02-15T08:45:03.217Z,11196
2018-02-15T08:46:13.624Z,11952
2018-02-15T08:47:23.787Z,12628
2018-02-15T08:48:33.931Z,13856
2018-02-15T08:49:44.252Z,14976
2018-02-15T08:50:54.427Z,14496
2018-02-15T08:52:04.631Z,11884
2018-02-15T08:53:14.825Z,11672
2018-02-15T08:54:25.029Z,11392
2018-02-15T08:55:35.298Z,11688
2018-02-15T08:56:45.458Z,11856
2018-02-15T08:57:55.357Z,11280
2018-02-15T08:59:05.496Z,10776
2018-02-15T09:00:15.757Z,11020
2018-02-15T09:01:25.275Z,11212
2018-02-15T09:02:35.389Z,11560
2018-02-15T09:03:45.006Z,10784
2018-02-15T09:04:55.133Z,11412
2018-02-15T09:06:05.366Z,12524
2018-02-15T09:07:15.546Z,12484
2018-02-15T09:08:25.752Z,12584
2018-02-15T09:09:36.021Z,13332
2018-02-15T09:10:46.251Z,14400
2018-02-15T09:11:56.436Z,16128
2018-02-15T09:13:06.642Z,16480
2018-02-15T09:14:16.804Z,16320
2018-02-15T09:15:26.994Z,15200
2018-02-15T09:16:37.135Z,14496
2018-02-15T09:17:47.273Z,15392
2018-02-15T09:18:57.539Z,13244
2018-02-15T09:20:07.043Z,13176
2018-02-15T09:21:17.220Z,14432
2018-02-15T09:22:27.400Z,15168
2018-02-15T09:23:38.570Z,13808
2018-02-15T09:24:48.496Z,14784
2018-02-15T09:25:58.622Z,19680
2018-02-15T09:27:08.831Z,18880
2018-02-15T09:28:18.971Z,18368
2018-02-15T09:29:29.116Z,19232
2018-02-15T09:30:39.224Z,21248
2018-02-15T09:31:49.383Z,21184
2018-02-15T09:32:59.502Z,20352
2018-02-15T09:34:09.834Z,16352
2018-02-15T09:35:19.993Z,14368
2018-02-15T09:36:30.135Z,15136
2018-02-15T09:37:40.354Z,21568
2018-02-15T09:38:50.556Z,21568
2018-02-15T09:40:00.751Z,21888
2018-02-15T09:41:10.987Z,19840
2018-02-15T09:42:21.134Z,23104
2018-02-15T09:43:31.015Z,28672
2018-02-15T09:44:41.169Z,29696
2018-02-15T09:45:51.413Z,27936
2018-02-15T09:47:01.603Z,23040
2018-02-15T09:48:11.468Z,21088
2018-02-15T09:49:21.653Z,24288
2018-02-15T09:50:31.786Z,23456
2018-02-15T09:51:41.946Z,26528
2018-02-15T09:52:51.814Z,29152
2018-02-15T09:54:01.744Z,31264
2018-02-15T09:55:11.873Z,28800
2018-02-15T09:56:22.008Z,31072
2018-02-15T09:57:33.097Z,29504
2018-02-15T09:58:43.402Z,18496
2018-02-15T09:59:53.648Z,20480
2018-02-15T10:01:03.560Z,24896
2018-02-15T10:02:13.424Z,28064
2018-02-15T10:03:23.706Z,21696
2018-02-15T10:04:33.846Z,20640
2018-02-15T10:05:44.004Z,20480
2018-02-15T10:06:54.128Z,20448
2018-02-15T10:08:04.003Z,22336
2018-02-15T10:09:14.136Z,21760
2018-02-15T10:10:24.334Z,22496
2018-02-15T10:11:34.521Z,17856
2018-02-15T10:12:44.688Z,16288
2018-02-15T10:13:55.847Z,18176
2018-02-15T10:15:05.986Z,21920
2018-02-15T10:16:15.873Z,20480
2018-02-15T10:17:26.015Z,24416
2018-02-15T10:18:35.690Z,21216
2018-02-15T10:19:45.554Z,21568
2018-02-15T10:20:55.701Z,21632
2018-02-15T10:22:05.884Z,21280
2018-02-15T10:23:16.006Z,21536
2018-02-15T10:24:26.135Z,21376
2018-02-15T10:25:36.263Z,18944
2018-02-15T10:26:47.346Z,17568
2018-02-15T10:27:57.531Z,20192
2018-02-15T10:29:07.655Z,19744
2018-02-15T10:30:17.793Z,16448
2018-02-15T10:31:27.958Z,17440
2018-02-15T10:32:38.067Z,21760
2018-02-15T10:33:48.254Z,19232
2018-02-15T10:34:58.142Z,18400
2018-02-15T10:36:08.272Z,17152
2018-02-15T10:37:18.426Z,14016
2018-02-15T10:38:28.342Z,12972
2018-02-15T10:39:37.891Z,12260
2018-02-15T10:40:48.060Z,11024
2018-02-15T10:41:59.198Z,9940
2018-02-15T10:43:09.432Z,9152
2018-02-15T10:44:19.543Z,8516
2018-02-15T10:45:29.453Z,8168
2018-02-15T10:46:39.320Z,8008
2018-02-15T10:47:49.488Z,7860
2018-02-15T10:48:59.621Z,7668
2018-02-15T10:50:09.780Z,7596
2018-02-15T10:51:20.031Z,7740
2018-02-15T10:52:29.891Z,8060
2018-02-15T10:53:40.019Z,8344
2018-02-15T10:54:50.179Z,8812
2018-02-15T10:56:00.342Z,9280
2018-02-15T10:57:10.117Z,9668
2018-02-15T10:58:21.247Z,10260
2018-02-15T10:59:31.368Z,10720
2018-02-15T11:00:41.156Z,10724
2018-02-15T11:01:51.514Z,10548
2018-02-15T11:03:01.647Z,10980
2018-02-15T11:04:11.890Z,12828
2018-02-15T11:05:22.132Z,15200
2018-02-15T11:06:32.292Z,18592
2018-02-15T11:07:42.262Z,18272
2018-02-15T11:08:52.423Z,18112
2018-02-15T11:10:02.554Z,15104
2018-02-15T11:11:12.717Z,15008
2018-02-15T11:12:22.857Z,15008
2018-02-15T11:13:32.736Z,14472
2018-02-15T11:14:43.886Z,14028
2018-02-15T11:15:54.139Z,13360
2018-02-15T11:17:04.350Z,13512
2018-02-15T11:18:14.528Z,13892
2018-02-15T11:19:24.699Z,13920
2018-02-15T11:20:34.556Z,13704
2018-02-15T11:21:44.738Z,13288
2018-02-15T11:22:55.577Z,12428
2018-02-15T11:24:05.814Z,11588
2018-02-15T11:25:15.685Z,10568
2018-02-15T11:26:25.814Z,9908
2018-02-15T11:27:35.965Z,9540
2018-02-15T11:28:45.878Z,9380
2018-02-15T11:29:56.003Z,9448
2018-02-15T11:31:06.121Z,9692
2018-02-15T11:32:15.846Z,9336
2018-02-15T11:33:26.040Z,8960
2018-02-15T11:34:35.925Z,8944
2018-02-15T11:35:46.051Z,8244
2018-02-15T11:36:56.191Z,8028
2018-02-15T11:38:06.332Z,8116
2018-02-15T11:39:16.556Z,8632
2018-02-15T11:40:27.739Z,8124
2018-02-15T11:41:37.849Z,7004
2018-02-15T11:42:47.979Z,6960
2018-02-15T11:43:59.084Z,7540
2018-02-15T11:45:09.205Z,7224
2018-02-15T11:46:20.329Z,6480
2018-02-15T11:47:30.488Z,6148
2018-02-15T11:48:40.635Z,6072
2018-02-15T11:49:50.753Z,5800
2018-02-15T11:51:00.964Z,5412
2018-02-15T11:52:11.107Z,4796
2018-02-15T11:53:20.995Z,4268
2018-02-15T11:54:31.117Z,4008
2018-02-15T11:55:41.236Z,3940
2018-02-15T11:56:51.108Z,3936
2018-02-15T11:58:00.955Z,4044
2018-02-15T11:59:10.865Z,4192
2018-02-15T12:00:21.067Z,4388
2018-02-15T12:01:32.204Z,4608
2018-02-15T12:02:42.359Z,4688
2018-02-15T12:03:52.487Z,4564
2018-02-15T12:05:02.653Z,4320
2018-02-15T12:06:12.868Z,4144
2018-02-15T12:07:23.013Z,4140
2018-02-15T12:08:33.151Z,4000
2018-02-15T12:09:43.381Z,3932
2018-02-15T12:10:53.571Z,3960
2018-02-15T12:12:03.824Z,4096
2018-02-15T12:13:14.047Z,4156
2018-02-15T12:14:24.334Z,4136
2018-02-15T12:15:34.450Z,4060
2018-02-15T12:16:44.425Z,4064
2018-02-15T12:17:54.325Z,4184
2018-02-15T12:19:04.665Z,4300
2018-02-15T12:20:14.819Z,4384
2018-02-15T12:21:25.078Z,4348
2018-02-15T12:22:35.301Z,4308
2018-02-15T12:23:45.157Z,4208
2018-02-15T12:24:55.322Z,4224
2018-02-15T12:26:05.527Z,4288
2018-02-15T12:27:15.698Z,4484
2018-02-15T12:28:25.467Z,4744
2018-02-15T12:29:35.328Z,4832
2018-02-15T12:30:45.443Z,4812
2018-02-15T12:31:56.776Z,4548
2018-02-15T12:33:06.909Z,4216
2018-02-15T12:34:17.117Z,4000
2018-02-15T12:35:27.314Z,3904
2018-02-15T12:36:37.343Z,4040
2018-02-15T12:37:47.454Z,4016
2018-02-15T12:38:57.583Z,3928
2018-02-15T12:40:07.735Z,4004
2018-02-15T12:41:17.877Z,4352
2018-02-15T12:42:28.137Z,4668
2018-02-15T12:43:38.310Z,4636
2018-02-15T12:44:48.585Z,4432
2018-02-15T12:45:58.818Z,4144
2018-02-15T12:47:09.128Z,3940
2018-02-15T12:48:19.270Z,3780
2018-02-15T12:49:29.390Z,3476
2018-02-15T12:50:39.539Z,3224
2018-02-15T12:51:50.622Z,3100
2018-02-15T12:53:00.751Z,2896
2018-02-15T12:54:10.900Z,2860
2018-02-15T12:55:21.157Z,2780
2018-02-15T12:56:31.393Z,2888
2018-02-15T12:57:41.528Z,2996
2018-02-15T12:58:51.728Z,3152
2018-02-15T13:00:01.958Z,3476
2018-02-15T13:01:12.228Z,3700
2018-02-15T13:02:22.481Z,3680
2018-02-15T13:03:32.709Z,3568
2018-02-15T13:04:42.838Z,3428
2018-02-15T13:05:53.057Z,3320
2018-02-15T13:07:02.837Z,3352
2018-02-15T13:08:12.994Z,3468
2018-02-15T13:09:23.257Z,3524
2018-02-15T13:10:33.437Z,3516
2018-02-15T13:11:43.592Z,3452
2018-02-15T13:12:53.719Z,3412
2018-02-15T13:14:03.894Z,3260
2018-02-15T13:15:14.026Z,3140
2018-02-15T13:16:24.148Z,3136
2018-02-15T13:17:34.298Z,3116
2018-02-15T13:18:44.448Z,3080
2018-02-15T13:19:54.680Z,3016
2018-02-15T13:21:04.905Z,2980
2018-02-15T13:22:15.033Z,2844
2018-02-15T13:23:25.298Z,2688
2018-02-15T13:24:35.723Z,2696
2018-02-15T13:25:45.947Z,2728
2018-02-15T13:26:56.092Z,2784
2018-02-15T13:28:06.368Z,2760
2018-02-15T13:29:16.677Z,2596
2018-02-15T13:30:26.857Z,2492
2018-02-15T13:31:36.996Z,2348
2018-02-15T13:32:47.284Z,2204
2018-02-15T13:33:57.463Z,2180
2018-02-15T13:35:07.696Z,2284
2018-02-15T13:36:17.866Z,2380
2018-02-15T13:37:28.099Z,2252
2018-02-15T13:38:38.308Z,2200
2018-02-15T13:39:48.522Z,2344
2018-02-15T13:40:58.667Z,2272
2018-02-15T13:42:08.906Z,2368
2018-02-15T13:43:19.125Z,2448
2018-02-15T13:44:29.567Z,2380
2018-02-15T13:45:39.750Z,2200
2018-02-15T13:46:49.987Z,2296
2018-02-15T13:48:01.104Z,2352
2018-02-15T13:49:11.293Z,2584
2018-02-15T13:50:21.572Z,2796
2018-02-15T13:51:31.769Z,3056
2018-02-15T13:52:41.709Z,3160
2018-02-15T13:53:51.828Z,3268
2018-02-15T13:55:02.082Z,3344
2018-02-15T13:56:12.245Z,3400
2018-02-15T13:57:22.425Z,3276
2018-02-15T13:58:32.615Z,3156
2018-02-15T13:59:42.813Z,3088
2018-02-15T14:00:52.952Z,3068
2018-02-15T14:02:02.904Z,3044
2018-02-15T14:03:13.022Z,3060
2018-02-15T14:04:23.192Z,3036
2018-02-15T14:05:33.078Z,2932
2018-02-15T14:06:43.311Z,2868
2018-02-15T14:07:53.518Z,2916
2018-02-15T14:09:03.692Z,3104
2018-02-15T14:10:13.859Z,3264
2018-02-15T14:11:24.459Z,3368
2018-02-15T14:12:34.327Z,3384
2018-02-15T14:13:44.200Z,3220
2018-02-15T14:14:54.330Z,2900
2018-02-15T14:16:04.473Z,2564
2018-02-15T14:17:14.670Z,2288
2018-02-15T14:18:24.835Z,2168
2018-02-15T14:19:35.064Z,2176
2018-02-15T14:20:45.221Z,2244
2018-02-15T14:21:55.379Z,2272
2018-02-15T14:23:05.539Z,2220
2018-02-15T14:24:15.665Z,2288
2018-02-15T14:25:26.022Z,2496
2018-02-15T14:26:36.145Z,2664
2018-02-15T14:27:46.308Z,2660
2018-02-15T14:28:56.176Z,2520
2018-02-15T14:30:06.331Z,2420
2018-02-15T14:31:16.478Z,2404
2018-02-15T14:32:26.616Z,2404
2018-02-15T14:33:36.497Z,2308
2018-02-15T14:34:46.711Z,2200
2018-02-15T14:35:56.849Z,2196
2018-02-15T14:37:07.990Z,2364
2018-02-15T14:38:18.205Z,2520
2018-02-15T14:39:28.398Z,2552
2018-02-15T14:40:38.154Z,2500
2018-02-15T14:41:48.082Z,2464
2018-02-15T14:42:58.214Z,2592
2018-02-15T14:44:08.369Z,2752
2018-02-15T14:45:18.516Z,2888
2018-02-15T14:46:28.433Z,2964
2018-02-15T14:47:38.611Z,2924
2018-02-15T14:48:48.752Z,2716
2018-02-15T14:49:58.971Z,2232
2018-02-15T14:51:09.147Z,1780
2018-02-15T14:52:19.349Z,1440
2018-02-15T14:53:29.514Z,1288
2018-02-15T14:54:39.686Z,1244
2018-02-15T14:55:50.132Z,1256
2018-02-15T14:56:59.779Z,1296
2018-02-15T14:58:09.965Z,1308
2018-02-15T14:59:20.166Z,1404
2018-02-15T15:00:30.568Z,1532
2018-02-15T15:01:41.667Z,1616
2018-02-15T15:02:51.797Z,1740
2018-02-15T15:04:01.928Z,1776
2018-02-15T15:05:12.081Z,1748
2018-02-15T15:06:23.216Z,1632
2018-02-15T15:07:33.480Z,1576
2018-02-15T15:08:43.628Z,1576
2018-02-15T15:09:53.754Z,1596
2018-02-15T15:11:03.916Z,1596
2018-02-15T15:12:15.154Z,1596
2018-02-15T15:13:25.417Z,1568
2018-02-15T15:14:35.617Z,1456
2018-02-15T15:15:45.551Z,1284
2018-02-15T15:16:55.708Z,1084
2018-02-15T15:18:05.864Z,940
2018-02-15T15:19:16.040Z,836
2018-02-15T15:20:26.266Z,776
2018-02-15T15:21:36.416Z,736
2018-02-15T15:22:47.585Z,764
2018-02-15T15:23:57.767Z,808
2018-02-15T15:25:07.980Z,832
2018-02-15T15:26:18.130Z,872
2018-02-15T15:27:29.232Z,880
2018-02-15T15:28:39.119Z,864
2018-02-15T15:29:49.043Z,948
2018-02-15T15:30:59.186Z,1012
2018-02-15T15:32:09.342Z,984
2018-02-15T15:33:19.533Z,996
2018-02-15T15:34:29.679Z,1048
2018-02-15T15:35:39.861Z,1024
2018-02-15T15:36:49.640Z,1024
2018-02-15T15:37:59.765Z,1016
2018-02-15T15:39:09.727Z,1016
2018-02-15T15:40:19.866Z,996
2018-02-15T15:41:29.990Z,976
2018-02-15T15:42:39.974Z,868
2018-02-15T15:43:50.212Z,800
2018-02-15T15:45:00.409Z,736
2018-02-15T15:46:10.556Z,692
2018-02-15T15:47:20.712Z,636
2018-02-15T15:48:31.007Z,576
2018-02-15T15:49:40.902Z,500
2018-02-15T15:50:51.046Z,492
2018-02-15T15:52:01.183Z,496
2018-02-15T15:53:11.332Z,464
2018-02-15T15:54:21.622Z,440
2018-02-15T15:55:32.543Z,376
2018-02-15T15:56:42.674Z,372
2018-02-15T15:57:52.818Z,348
2018-02-15T15:59:02.959Z,356
2018-02-15T16:00:13.198Z,292
2018-02-15T16:01:23.360Z,292
2018-02-15T16:02:33.494Z,288
2018-02-15T16:03:43.647Z,256
2018-02-15T16:04:53.827Z,256
2018-02-15T16:06:04.060Z,216
2018-02-15T16:07:14.262Z,184
2018-02-15T16:08:24.474Z,156